Time;durP1;ratioP1;P1;durP2;ratioP2;P2;SDS_P1;SDS_P2;PMS_P1;PMS_P2;Temp;Humidity;BMP_temperature;BMP_pressure;BME280_temperature;BME280_humidity;BME280_pressure;Samples;Min_cycle;Max_cycle;Signal;HPM_P1;HPM_P2
2024/04/05 00:01:50;;;;;;;2.53;1.00;;;13.00;99.90;;;;;;5037603;28;20412;-79
2024/04/05 00:04:17;;;;;;;4.22;1.10;;;13.00;99.90;;;;;;5052209;28;20110;-78
2024/04/05 00:06:45;;;;;;;4.05;0.95;;;12.90;99.90;;;;;;5039402;28;20048;-78
2024/04/05 00:09:13;;;;;;;2.00;0.80;;;13.00;99.90;;;;;;5078353;28;20048;-79
2024/04/05 00:11:39;;;;;;;4.45;0.88;;;13.00;99.90;;;;;;5051280;28;20380;-78
2024/04/05 00:14:05;;;;;;;3.03;1.05;;;13.00;99.90;;;;;;5037772;28;20385;-80
2024/04/05 00:16:31;;;;;;;2.40;1.02;;;13.00;99.90;;;;;;5037662;28;20067;-79
2024/04/05 00:18:57;;;;;;;3.78;0.90;;;13.00;99.90;;;;;;5054374;28;20100;-79
2024/04/05 00:21:23;;;;;;;2.88;1.23;;;13.00;99.90;;;;;;5054099;28;20048;-79
2024/04/05 00:23:49;;;;;;;9.82;1.35;;;13.00;99.90;;;;;;5037741;28;20049;-79
2024/04/05 00:26:16;;;;;;;2.95;1.00;;;13.00;99.90;;;;;;5037491;28;20117;-79
2024/04/05 00:28:42;;;;;;;3.72;1.17;;;12.90;99.90;;;;;;5037814;28;20056;-77
2024/04/05 00:31:10;;;;;;;2.45;1.00;;;13.00;99.90;;;;;;5038096;28;20049;-78
2024/04/05 00:33:37;;;;;;;2.15;0.95;;;13.00;99.90;;;;;;5037941;28;20506;-78
2024/04/05 00:36:05;;;;;;;4.78;1.02;;;12.90;99.90;;;;;;5076869;28;20802;-78
2024/04/05 00:38:30;;;;;;;1.17;0.73;;;12.80;99.90;;;;;;5037470;28;20079;-80
2024/04/05 00:40:58;;;;;;;3.42;0.90;;;12.90;99.90;;;;;;5053935;28;20044;-79
2024/04/05 00:43:24;;;;;;;2.72;1.00;;;12.80;99.90;;;;;;5037313;28;20052;-78
2024/04/05 00:45:51;;;;;;;3.90;0.98;;;12.80;99.90;;;;;;5037694;28;20048;-79
2024/04/05 00:48:19;;;;;;;5.10;1.25;;;12.80;99.90;;;;;;5037426;28;20377;-79
2024/04/05 00:50:46;;;;;;;2.60;0.90;;;12.80;99.90;;;;;;5037348;28;20359;-78
2024/04/05 00:53:16;;;;;;;2.30;0.77;;;12.80;99.90;;;;;;5037818;28;20487;-78
2024/04/05 00:55:45;;;;;;;5.05;1.23;;;12.70;99.90;;;;;;5053744;28;20063;-79
2024/04/05 00:58:12;;;;;;;1.95;0.80;;;12.80;99.90;;;;;;5037398;28;20431;-79
2024/04/05 01:00:38;;;;;;;2.72;0.80;;;12.70;99.90;;;;;;5032277;28;20465;-78
2024/04/05 01:03:06;;;;;;;3.40;1.23;;;12.70;99.90;;;;;;5037011;28;20132;-79
2024/04/05 01:05:33;;;;;;;3.22;0.90;;;12.70;99.90;;;;;;5069936;28;20396;-79
2024/04/05 01:07:59;;;;;;;3.20;0.90;;;12.70;99.90;;;;;;5086621;28;20056;-79
2024/04/05 01:10:25;;;;;;;1.60;1.20;;;12.60;99.90;;;;;;5038467;28;20044;-79
2024/04/05 01:12:59;;;;;;;5.85;1.48;;;12.60;99.90;;;;;;5036964;28;20105;-79
2024/04/05 01:15:27;;;;;;;3.63;1.48;;;12.60;99.90;;;;;;5055723;28;20366;-78
2024/04/05 01:17:54;;;;;;;3.75;1.63;;;12.60;99.90;;;;;;5053311;28;20052;-79
2024/04/05 01:20:24;;;;;;;3.97;1.90;;;12.60;99.90;;;;;;5060062;28;20052;-79
2024/04/05 01:22:53;;;;;;;3.67;1.63;;;12.60;99.90;;;;;;5036675;28;20052;-79
2024/04/05 01:25:22;;;;;;;4.90;1.48;;;12.60;99.90;;;;;;5037495;28;20045;-79
2024/04/05 01:27:48;;;;;;;3.45;1.35;;;12.50;99.90;;;;;;5037488;28;20064;-79
2024/04/05 01:30:15;;;;;;;4.43;1.52;;;12.60;99.90;;;;;;5040912;28;20461;-79
2024/04/05 01:32:48;;;;;;;2.20;1.30;;;12.50;99.90;;;;;;5041453;28;20060;-79
2024/04/05 01:35:13;;;;;;;3.75;1.40;;;12.50;99.90;;;;;;5057055;28;20113;-78
2024/04/05 01:37:39;;;;;;;2.92;1.10;;;12.50;99.90;;;;;;5041301;28;20072;-79
2024/04/05 01:40:06;;;;;;;1.50;1.05;;;12.50;99.90;;;;;;5042127;28;20063;-79
2024/04/05 01:42:31;;;;;;;2.88;1.08;;;12.50;99.90;;;;;;5057435;28;20063;-78
2024/04/05 01:44:59;;;;;;;3.83;1.30;;;12.60;99.90;;;;;;5057353;28;20500;-80
2024/04/05 01:47:25;;;;;;;1.83;1.23;;;12.50;99.90;;;;;;5040611;28;20052;-80
2024/04/05 01:49:53;;;;;;;1.58;1.05;;;12.50;99.90;;;;;;5057338;28;20052;-79
2024/04/05 01:52:19;;;;;;;1.98;1.30;;;12.50;99.90;;;;;;5040572;28;20060;-79
2024/04/05 01:54:45;;;;;;;5.22;1.50;;;12.40;99.90;;;;;;5057677;28;20056;-79
2024/04/05 01:57:12;;;;;;;2.20;1.30;;;12.40;99.90;;;;;;5040805;28;20125;-79
2024/04/05 01:59:38;;;;;;;6.57;1.30;;;12.40;99.90;;;;;;5040808;28;20071;-79
2024/04/05 02:02:06;;;;;;;1.75;0.90;;;12.40;99.90;;;;;;5040438;28;20058;-79
2024/04/05 02:04:32;;;;;;;6.07;1.17;;;12.30;99.90;;;;;;5040866;28;20463;-79
2024/04/05 02:07:00;;;;;;;3.75;1.05;;;12.30;99.90;;;;;;5040751;28;20191;-79
2024/04/05 02:09:26;;;;;;;4.70;1.13;;;12.30;99.90;;;;;;5039359;28;20052;-78
2024/04/05 02:11:52;;;;;;;3.15;1.00;;;12.30;99.90;;;;;;5057181;28;20060;-79
2024/04/05 02:14:18;;;;;;;2.95;1.10;;;12.30;99.90;;;;;;5040461;28;20065;-79
2024/04/05 02:16:45;;;;;;;2.13;0.90;;;12.30;99.90;;;;;;5023737;28;20147;-79
2024/04/05 02:19:12;;;;;;;4.47;1.00;;;12.30;99.90;;;;;;5089668;28;20052;-79
2024/04/05 02:21:37;;;;;;;1.48;1.00;;;12.30;99.90;;;;;;5040234;28;20063;-79
2024/04/05 02:24:04;;;;;;;1.52;0.80;;;12.30;99.90;;;;;;5039833;28;20384;-78
2024/04/05 02:26:30;;;;;;;2.38;1.10;;;12.30;99.90;;;;;;5040412;28;20060;-79
2024/04/05 02:28:55;;;;;;;1.10;1.00;;;12.30;99.90;;;;;;5039699;28;20444;-78
2024/04/05 02:31:23;;;;;;;3.15;1.10;;;12.30;99.90;;;;;;5056744;28;20149;-79
2024/04/05 02:33:49;;;;;;;5.65;1.20;;;12.20;99.90;;;;;;5039933;28;20125;-80
2024/04/05 02:36:15;;;;;;;1.20;0.77;;;12.30;99.90;;;;;;5039494;28;20060;-80
2024/04/05 02:38:41;;;;;;;1.58;0.93;;;12.30;99.90;;;;;;5039491;28;20261;-79
2024/04/05 02:41:09;;;;;;;5.22;1.10;;;12.30;99.90;;;;;;5039945;28;20454;-78
2024/04/05 02:43:35;;;;;;;2.38;1.00;;;12.20;99.90;;;;;;5056023;28;20048;-80
2024/04/05 02:46:01;;;;;;;2.45;0.93;;;12.30;99.90;;;;;;5039360;28;20374;-79
2024/04/05 02:48:32;;;;;;;2.28;1.05;;;12.30;99.90;;;;;;5056459;28;20060;-80
2024/04/05 02:51:00;;;;;;;2.65;1.23;;;12.20;99.90;;;;;;5054123;28;20044;-80
2024/04/05 02:53:26;;;;;;;2.60;1.10;;;12.20;99.90;;;;;;5056455;28;20048;-79
2024/04/05 02:55:52;;;;;;;2.33;0.90;;;12.20;99.90;;;;;;5055351;28;20366;-80
2024/04/05 02:58:18;;;;;;;2.42;0.98;;;12.20;99.90;;;;;;5056006;28;20059;-79
2024/04/05 03:00:45;;;;;;;4.25;1.30;;;12.20;99.90;;;;;;5039333;28;20049;-79
2024/04/05 03:03:12;;;;;;;2.08;1.10;;;12.20;99.90;;;;;;5039094;28;20071;-79
2024/04/05 03:05:37;;;;;;;4.32;1.10;;;12.20;99.90;;;;;;5039442;28;20056;-78
2024/04/05 03:08:05;;;;;;;2.53;1.05;;;12.20;99.90;;;;;;5055862;28;20044;-80
2024/04/05 03:10:32;;;;;;;1.40;0.80;;;12.20;99.90;;;;;;5055328;28;20064;-79
2024/04/05 03:13:00;;;;;;;3.30;1.02;;;12.20;99.90;;;;;;5065099;28;20040;-79
2024/04/05 03:15:28;;;;;;;3.35;1.20;;;12.20;99.90;;;;;;5039322;28;20056;-79
2024/04/05 03:17:54;;;;;;;2.72;1.20;;;12.20;99.90;;;;;;5039378;28;20056;-80
2024/04/05 03:20:20;;;;;;;3.47;1.00;;;12.20;99.90;;;;;;5039692;28;20056;-79
2024/04/05 03:22:46;;;;;;;7.85;1.52;;;12.20;99.90;;;;;;5038855;28;20052;-78
2024/04/05 03:25:14;;;;;;;5.72;1.38;;;12.20;99.90;;;;;;5055491;28;20084;-78
2024/04/05 03:27:40;;;;;;;4.15;1.83;;;12.20;99.90;;;;;;5054382;28;20048;-78
2024/04/05 03:30:09;;;;;;;3.83;1.30;;;12.10;99.90;;;;;;5055678;28;20049;-79
2024/04/05 03:32:38;;;;;;;4.43;1.15;;;12.10;99.90;;;;;;5039074;28;20075;-79
2024/04/05 03:35:06;;;;;;;5.13;1.55;;;12.10;99.90;;;;;;5039115;28;20060;-78
2024/04/05 03:37:32;;;;;;;4.53;1.90;;;12.10;99.90;;;;;;5055289;28;20397;-79
2024/04/05 03:39:59;;;;;;;2.83;1.55;;;12.00;99.90;;;;;;5055363;28;20057;-79
2024/04/05 03:45:46;;;;;;;3.20;1.52;;;12.00;99.90;;;;;;4988843;28;20073;-78
2024/04/05 03:48:26;;;;;;;6.15;1.77;;;11.90;99.90;;;;;;4985513;28;20047;-79
2024/04/05 03:50:52;;;;;;;4.80;1.50;;;11.90;99.90;;;;;;4987770;28;20117;-79
2024/04/05 03:53:21;;;;;;;3.65;1.42;;;11.80;99.90;;;;;;4958965;28;20054;-79
2024/04/05 03:56:15;;;;;;;3.95;1.73;;;11.80;99.90;;;;;;4973490;28;20054;-79
2024/04/05 03:59:03;;;;;;;3.00;1.33;;;11.70;99.90;;;;;;4975181;28;20054;-79
2024/04/05 04:01:40;;;;;;;2.50;1.48;;;11.70;99.90;;;;;;4953108;28;20085;-79
2024/04/05 04:04:17;;;;;;;3.60;1.33;;;11.60;99.90;;;;;;4957950;28;20054;-79
2024/04/05 04:07:05;;;;;;;7.97;1.60;;;11.60;99.90;;;;;;4987989;28;20061;-78
2024/04/05 04:09:34;;;;;;;2.10;1.40;;;11.50;99.90;;;;;;4958695;28;20062;-80
2024/04/05 04:12:06;;;;;;;6.47;1.45;;;11.50;99.90;;;;;;4942216;28;20061;-79
2024/04/05 04:14:56;;;;;;;4.85;1.58;;;11.40;99.90;;;;;;4959341;28;20542;-78
2024/04/05 04:17:36;;;;;;;6.97;1.83;;;11.40;99.90;;;;;;4959252;28;20557;-79
2024/04/05 04:20:19;;;;;;;4.93;1.48;;;11.30;99.90;;;;;;4957907;28;20113;-80
2024/04/05 04:22:48;;;;;;;5.28;1.85;;;11.30;99.90;;;;;;4993871;28;20048;-78
2024/04/05 04:25:25;;;;;;;3.15;1.58;;;11.30;99.90;;;;;;5054012;28;20485;-78
2024/04/05 04:28:03;;;;;;;2.83;1.60;;;11.30;99.90;;;;;;5037331;28;20040;-78
2024/04/05 04:30:48;;;;;;;4.57;1.75;;;11.30;99.90;;;;;;5038325;28;20113;-78
2024/04/05 04:33:25;;;;;;;3.33;1.77;;;11.40;99.90;;;;;;5051970;28;20048;-78
2024/04/05 04:36:26;;;;;;;2.60;1.90;;;11.40;99.90;;;;;;5036483;28;20330;-78
2024/04/05 04:38:59;;;;;;;5.28;2.13;;;11.50;99.90;;;;;;5053344;28;20056;-78
2024/04/05 04:41:29;;;;;;;3.53;2.08;;;11.50;99.90;;;;;;5078003;28;20300;-78
2024/04/05 04:44:06;;;;;;;4.95;2.10;;;11.60;99.90;;;;;;5039590;28;20048;-78
2024/04/05 04:46:36;;;;;;;9.52;3.95;;;11.60;99.90;;;;;;5036539;28;20056;-78
2024/04/05 04:49:08;;;;;;;9.65;4.63;;;11.60;99.90;;;;;;5027644;28;20048;-78
2024/04/05 04:52:05;;;;;;;;;;;;;;;;;;;;;
2024/04/05 04:54:49;;;;;;;19.10;7.65;;;11.70;99.90;;;;;;5054294;28;20063;-78
2024/04/05 04:57:18;;;;;;;11.40;5.97;;;11.70;99.90;;;;;;5037896;28;20056;-78
2024/04/05 04:59:47;;;;;;;9.60;4.28;;;11.80;99.90;;;;;;5039381;28;20055;-78
2024/04/05 05:02:24;;;;;;;8.43;5.22;;;11.80;99.90;;;;;;5051343;28;20053;-78
2024/04/05 05:04:53;;;;;;;15.73;4.88;;;11.80;99.90;;;;;;5036571;28;20110;-78
2024/04/05 05:07:23;;;;;;;13.43;6.00;;;11.80;99.90;;;;;;5036884;28;20048;-78
2024/04/05 05:09:57;;;;;;;16.70;7.95;;;11.90;99.90;;;;;;5037524;28;20060;-78
2024/04/05 05:12:29;;;;;;;14.88;6.65;;;11.90;99.90;;;;;;5036402;28;20465;-78
2024/04/05 05:14:55;;;;;;;5.25;2.85;;;11.90;99.90;;;;;;5035510;28;20067;-78
2024/04/05 05:17:33;;;;;;;16.08;7.30;;;12.00;99.90;;;;;;5054259;28;20056;-78
2024/04/05 05:20:08;;;;;;;11.45;4.82;;;12.00;99.90;;;;;;5037548;28;20048;-78
2024/04/05 05:22:40;;;;;;;6.45;4.22;;;12.00;99.90;;;;;;5051872;28;20052;-78
2024/04/05 05:25:25;;;;;;;6.80;5.43;;;12.10;99.90;;;;;;5035663;28;20056;-78
2024/04/05 05:28:02;;;;;;;13.45;5.75;;;12.10;99.90;;;;;;5064686;28;20049;-78
2024/04/05 05:30:44;;;;;;;10.73;6.43;;;12.10;99.90;;;;;;5036985;28;20060;-78
2024/04/05 05:33:10;;;;;;;6.65;3.30;;;12.20;99.90;;;;;;5053756;28;20078;-78
2024/04/05 05:35:45;;;;;;;4.75;3.25;;;12.20;99.90;;;;;;5036753;28;20063;-78
2024/04/05 05:38:14;;;;;;;5.88;3.35;;;12.30;99.90;;;;;;5036121;28;20061;-78
2024/04/05 05:40:46;;;;;;;14.82;6.53;;;12.30;99.90;;;;;;5053977;28;20130;-78
2024/04/05 05:43:39;;;;;;;16.80;8.88;;;12.30;99.90;;;;;;5052090;28;20067;-78
2024/04/05 05:46:46;;;;;;;12.18;5.25;;;12.30;99.90;;;;;;5034006;28;20048;-78
2024/04/05 05:49:21;;;;;;;8.18;4.68;;;12.30;99.90;;;;;;5053985;28;20110;-78
2024/04/05 05:51:53;;;;;;;7.45;4.90;;;12.30;99.90;;;;;;5037226;28;20445;-78
2024/04/05 05:54:26;;;;;;;6.55;4.40;;;12.40;99.90;;;;;;5037145;28;20086;-78
2024/04/05 05:57:24;;;;;;;8.05;4.10;;;12.40;99.90;;;;;;5051672;28;20521;-78
2024/04/05 05:59:52;;;;;;;8.35;3.97;;;12.50;99.90;;;;;;5049927;28;20110;-78
2024/04/05 06:02:30;;;;;;;7.07;3.05;;;12.50;99.90;;;;;;5023827;28;20481;-78
2024/04/05 06:05:22;;;;;;;;;;;12.50;99.90;;;;;;5053595;28;20044;-78
2024/04/05 06:07:51;;;;;;;6.38;3.28;;;12.60;99.90;;;;;;5037284;28;19924;-78
2024/04/05 06:10:38;;;;;;;5.93;3.27;;;12.60;99.90;;;;;;5053590;28;20048;-78
2024/04/05 06:13:10;;;;;;;7.25;3.10;;;12.60;99.90;;;;;;5034028;28;20640;-77
2024/04/05 06:15:36;;;;;;;6.95;3.28;;;12.70;99.90;;;;;;5037576;28;20103;-78
2024/04/05 06:18:07;;;;;;;9.68;5.93;;;12.70;99.90;;;;;;5052526;28;20064;-78
2024/04/05 06:20:51;;;;;;;15.02;10.63;;;12.80;99.90;;;;;;5049560;28;20048;-78
2024/04/05 06:23:17;;;;;;;14.43;8.82;;;12.80;99.90;;;;;;5061295;28;20044;-78
2024/04/05 06:26:09;;;;;;;10.55;5.88;;;12.90;99.90;;;;;;5041410;28;20060;-78
2024/04/05 06:29:00;;;;;;;8.63;4.32;;;13.00;99.90;;;;;;5037218;28;20068;-78
2024/04/05 06:32:12;;;;;;;6.38;2.97;;;13.10;99.90;;;;;;5038276;28;20053;-78
2024/04/05 06:35:05;;;;;;;8.85;3.08;;;13.20;99.90;;;;;;4958911;28;20050;-78
2024/04/05 06:37:49;;;;;;;5.55;2.35;;;13.30;99.90;;;;;;4978957;28;20424;-78
2024/04/05 06:40:30;;;;;;;5.10;2.40;;;13.40;99.90;;;;;;4980586;28;20050;-78
2024/04/05 06:46:19;;;;;;;4.93;2.78;;;13.70;99.90;;;;;;4948349;28;20054;-78
2024/04/05 06:48:46;;;;;;;4.78;2.33;;;13.80;99.90;;;;;;4978024;28;20050;-78
2024/04/05 06:51:21;;;;;;;6.07;2.17;;;13.90;99.90;;;;;;5007409;28;20118;-78
2024/04/05 06:53:56;;;;;;;8.10;2.55;;;14.00;99.90;;;;;;5054849;28;20057;-78
2024/04/05 06:56:29;;;;;;;3.70;2.17;;;14.20;99.90;;;;;;5039329;28;20060;-78
2024/04/05 06:59:17;;;;;;;5.45;2.08;;;14.30;99.10;;;;;;5052789;28;20114;-78
2024/04/05 07:01:57;;;;;;;4.75;2.38;;;14.40;98.70;;;;;;5061206;28;20461;-79
2024/04/05 07:04:32;;;;;;;5.07;2.25;;;14.50;98.80;;;;;;5035415;28;20443;-79
2024/04/05 07:07:22;;;;;;;7.75;2.50;;;14.60;98.50;;;;;;5037930;28;20381;-79
2024/04/05 07:10:31;;;;;;;3.78;2.00;;;14.70;97.60;;;;;;5068202;28;20477;-81
2024/04/05 07:13:06;;;;;;;4.47;1.92;;;14.90;96.60;;;;;;5053860;28;20105;-78
2024/04/05 07:16:06;;;;;;;6.40;2.17;;;15.00;95.70;;;;;;5010310;28;20057;-78
2024/04/05 07:18:41;;;;;;;7.30;2.65;;;15.20;96.80;;;;;;4976808;28;20217;-78
2024/04/05 07:21:32;;;;;;;9.70;3.08;;;15.40;97.00;;;;;;5047364;28;20071;-78
2024/04/05 07:23:58;;;;;;;9.63;3.42;;;15.50;96.90;;;;;;5055574;28;20393;-78
2024/04/05 07:26:24;;;;;;;7.00;3.40;;;15.70;97.00;;;;;;5035264;28;20049;-78
2024/04/05 07:28:52;;;;;;;9.70;3.22;;;15.90;96.60;;;;;;5055065;28;20049;-78
2024/04/05 07:31:33;;;;;;;12.13;3.13;;;16.00;96.00;;;;;;5039127;28;20377;-78
2024/04/05 07:34:08;;;;;;;7.15;2.88;;;16.20;95.90;;;;;;5040264;28;20067;-78
2024/04/05 07:36:52;;;;;;;10.18;3.15;;;16.40;95.50;;;;;;5053706;28;20059;-78
2024/04/05 07:39:47;;;;;;;8.00;3.42;;;16.60;94.90;;;;;;5054810;28;20481;-78
2024/04/05 07:42:43;;;;;;;12.95;3.85;;;16.80;94.30;;;;;;5036844;28;20508;-78
2024/04/05 07:45:17;;;;;;;8.65;3.85;;;17.00;92.50;;;;;;5037446;28;20455;-78
2024/04/05 07:52:11;;;;;;;10.43;4.15;;;17.40;92.00;;;;;;5070186;28;20131;-78
2024/04/05 07:54:45;;;;;;;6.40;3.00;;;17.50;91.30;;;;;;5052905;28;20055;-78
2024/04/05 07:57:20;;;;;;;8.48;3.33;;;17.70;90.30;;;;;;5067408;28;20053;-78
2024/04/05 07:59:51;;;;;;;5.78;3.22;;;17.80;89.90;;;;;;5037984;28;20491;-78
2024/04/05 08:02:28;;;;;;;7.47;3.17;;;17.80;89.70;;;;;;5038741;28;20060;-79
2024/04/05 08:05:00;;;;;;;6.82;2.78;;;18.00;88.70;;;;;;5076184;28;20101;-79
2024/04/05 08:07:33;;;;;;;6.45;2.92;;;18.00;86.90;;;;;;5034259;28;20088;-78
2024/04/05 08:10:13;;;;;;;7.38;2.53;;;18.00;86.00;;;;;;5015941;28;20041;-79
2024/04/05 08:13:08;;;;;;;6.63;2.13;;;18.10;85.70;;;;;;5016950;28;20115;-78
2024/04/05 08:15:35;;;;;;;6.57;2.08;;;18.10;85.20;;;;;;5030585;28;20057;-78
2024/04/05 08:18:18;;;;;;;4.65;1.80;;;18.20;84.40;;;;;;5026079;28;20461;-79
2024/04/05 08:20:56;;;;;;;5.90;2.00;;;18.40;85.00;;;;;;5030597;23;20053;-79
2024/04/05 08:23:30;;;;;;;6.40;2.50;;;18.50;82.50;;;;;;5033492;28;20061;-79
2024/04/05 08:26:14;;;;;;;3.72;2.20;;;18.70;82.10;;;;;;5026632;28;20424;-79
2024/04/05 08:28:58;;;;;;;5.50;2.35;;;18.80;80.30;;;;;;5018770;28;20053;-78
2024/04/05 08:32:24;;;;;;;10.45;2.80;;;18.90;81.60;;;;;;5034010;28;20120;-79
2024/04/05 08:34:51;;;;;;;4.35;2.28;;;19.10;78.90;;;;;;5029564;28;20122;-79
2024/04/05 08:37:20;;;;;;;5.15;1.88;;;19.10;79.00;;;;;;5032495;28;20057;-79
2024/04/05 08:40:07;;;;;;;4.97;1.90;;;19.30;79.30;;;;;;5018062;28;20061;-79
2024/04/05 08:42:49;;;;;;;6.30;2.15;;;19.30;78.00;;;;;;5014492;28;20056;-79
2024/04/05 08:45:31;;;;;;;3.25;1.63;;;19.40;77.50;;;;;;5032045;28;20064;-79
2024/04/05 08:48:32;;;;;;;5.47;1.60;;;19.50;77.20;;;;;;5032993;28;20053;-79
2024/04/05 08:51:31;;;;;;;2.78;1.30;;;19.60;76.20;;;;;;4921939;29;20396;-79
2024/04/05 08:54:16;;;;;;;5.38;1.52;;;19.60;76.50;;;;;;5034013;28;20052;-79
2024/04/05 08:57:13;;;;;;;4.15;1.50;;;19.70;76.40;;;;;;5033013;28;20048;-79
2024/04/05 08:59:51;;;;;;;;;;;19.90;76.70;;;;;;4989662;28;20049;-79
2024/04/05 09:02:25;;;;;;;4.13;1.30;;;20.00;76.10;;;;;;5017459;28;19921;-79
2024/04/05 09:05:05;;;;;;;7.13;1.85;;;20.20;78.00;;;;;;5017061;28;20068;-79
2024/04/05 09:07:45;;;;;;;3.63;1.33;;;20.40;77.30;;;;;;5032282;28;20049;-78
2024/04/05 09:10:41;;;;;;;3.78;1.48;;;20.60;75.70;;;;;;5030618;28;20052;-79
2024/04/05 09:13:12;;;;;;;3.22;1.33;;;20.70;75.20;;;;;;5007115;28;20057;-79
2024/04/05 09:16:04;;;;;;;3.03;1.33;;;20.90;73.40;;;;;;4968105;28;20382;-79
2024/04/05 09:19:38;;;;;;;5.53;1.77;;;21.10;72.20;;;;;;4976395;28;20071;-79
2024/04/05 09:22:28;;;;;;;4.88;1.27;;;21.30;72.30;;;;;;5016966;28;20574;-79
2024/04/05 09:25:23;;;;;;;2.88;1.30;;;21.60;70.70;;;;;;5002418;28;20053;-79
2024/04/05 09:28:23;;;;;;;3.63;1.25;;;21.80;69.60;;;;;;4995960;28;20088;-79
2024/04/05 09:30:57;;;;;;;3.78;1.13;;;22.00;68.20;;;;;;4993799;28;20060;-79
2024/04/05 09:33:48;;;;;;;2.25;1.02;;;22.30;69.00;;;;;;5013436;28;20049;-79
2024/04/05 09:36:23;;;;;;;2.85;1.25;;;22.50;67.30;;;;;;5011226;28;20065;-79
2024/04/05 09:38:52;;;;;;;4.82;1.20;;;22.90;65.80;;;;;;4995474;28;20061;-79
2024/04/05 09:41:54;;;;;;;4.88;1.15;;;23.10;64.70;;;;;;4995238;28;20045;-79
2024/04/05 09:44:33;;;;;;;4.43;1.48;;;23.40;62.90;;;;;;5043610;28;20367;-79
2024/04/05 09:47:50;;;;;;;4.35;1.70;;;23.50;62.90;;;;;;5032078;28;20060;-79
2024/04/05 09:50:35;;;;;;;2.67;1.20;;;23.60;61.40;;;;;;4938233;29;20385;-79
2024/04/05 09:53:40;;;;;;;3.33;1.40;;;23.70;61.30;;;;;;5027675;28;20674;-79
2024/04/05 09:56:12;;;;;;;7.35;1.88;;;23.70;60.40;;;;;;5000792;28;20049;-79
2024/04/05 09:59:02;;;;;;;5.82;1.42;;;23.70;60.00;;;;;;5016376;28;20076;-79
2024/04/05 10:01:39;;;;;;;6.50;1.80;;;23.70;59.70;;;;;;5013367;28;20058;-79
2024/04/05 10:04:11;;;;;;;12.85;1.50;;;23.50;60.10;;;;;;5016330;28;20076;-79
2024/04/05 10:06:38;;;;;;;3.78;1.55;;;23.40;59.40;;;;;;4998168;28;20056;-79
2024/04/05 10:09:33;;;;;;;3.17;1.33;;;23.30;60.60;;;;;;5001172;28;20053;-79
2024/04/05 10:12:17;;;;;;;3.65;1.17;;;23.20;61.00;;;;;;5014672;28;20049;-79
2024/04/05 10:14:53;;;;;;;;;;;23.30;61.70;;;;;;5000804;28;20049;-79
2024/04/05 10:17:29;;;;;;;3.78;1.20;;;23.30;61.40;;;;;;4997664;28;20821;-79
2024/04/05 10:20:14;;;;;;;5.32;1.40;;;23.50;62.40;;;;;;5022433;23;20061;-79
2024/04/05 10:22:58;;;;;;;6.65;1.33;;;23.70;62.40;;;;;;5011930;28;20058;-79
2024/04/05 10:25:39;;;;;;;4.20;1.30;;;23.90;61.20;;;;;;4980233;28;20061;-79
2024/04/05 10:28:43;;;;;;;2.85;1.05;;;24.20;60.90;;;;;;4991855;28;20054;-79
2024/04/05 10:31:49;;;;;;;2.25;1.00;;;24.40;59.80;;;;;;4995947;28;20061;-79
2024/04/05 10:35:11;;;;;;;4.85;1.40;;;24.70;59.60;;;;;;4980463;28;20100;-79
2024/04/05 10:38:36;;;;;;;2.60;1.20;;;24.90;59.70;;;;;;4954120;29;20042;-79
2024/04/05 10:45:31;;;;;;;4.72;1.27;;;25.60;56.70;;;;;;4974997;28;20062;-80
2024/04/05 10:48:36;;;;;;;3.05;0.90;;;26.10;57.80;;;;;;4932368;29;20043;-80
2024/04/05 10:56:35;;;;;;;5.13;1.30;;;27.60;52.80;;;;;;4877966;29;20450;-78
2024/04/05 11:03:04;;;;;;;3.15;1.20;;;29.00;49.70;;;;;;4852737;29;20049;-80
2024/04/05 11:06:34;;;;;;;3.05;0.65;;;29.50;45.30;;;;;;4874603;29;20175;-79
2024/04/05 11:24:34;;;;;;;2.15;0.75;;;31.50;37.60;;;;;;5025094;28;20099;-80
2024/04/05 11:27:31;;;;;;;;;;;;;;;;;;;;;
2024/04/05 11:34:33;;;;;;;;;;;;;;;;;;;;;
2024/04/05 11:37:50;;;;;;;;;;;;;;;;;;;;;
2024/04/05 11:52:50;;;;;;;4.38;0.70;;;38.40;27.40;;;;;;4898830;29;20185;-79
2024/04/05 12:10:36;;;;;;;4.85;0.70;;;41.40;23.90;;;;;;4907899;29;20363;-79
2024/04/05 12:13:08;;;;;;;2.65;1.10;;;41.90;24.10;;;;;;4938744;28;20063;-79
2024/04/05 12:17:09;;;;;;;2.58;0.90;;;42.00;22.20;;;;;;4971038;28;20129;-79
2024/04/05 12:20:24;;;;;;;2.08;0.63;;;41.70;22.90;;;;;;4895274;29;20149;-80
2024/04/05 12:23:25;;;;;;;;;;;;;;;;;;;;;
2024/04/05 12:26:15;;;;;;;5.28;0.80;;;41.90;24.40;;;;;;4904802;29;20060;-80
2024/04/05 12:40:45;;;;;;;3.03;0.70;;;42.50;22.40;;;;;;4824580;29;20133;-79
2024/04/05 12:51:02;;;;;;;2.05;0.57;;;42.80;22.50;;;;;;4813375;29;20074;-79
2024/04/05 12:54:46;;;;;;;1.15;0.50;;;42.90;22.70;;;;;;4905192;29;20064;-79
2024/04/05 12:58:52;;;;;;;;;;;;;;;;;;;;;
2024/04/05 13:01:39;;;;;;;1.90;0.65;;;42.80;21.40;;;;;;4863195;29;20055;-79
2024/04/05 13:09:04;;;;;;;2.00;0.70;;;42.80;22.90;;;;;;4877221;28;20128;-80
2024/04/05 13:20:06;;;;;;;1.13;0.45;;;43.40;22.30;;;;;;4838753;29;20463;-79
2024/04/05 13:26:50;;;;;;;2.33;0.57;;;43.00;21.90;;;;;;4932657;29;20059;-80
2024/04/05 13:30:02;;;;;;;4.65;0.73;;;42.50;22.10;;;;;;4898453;29;20384;-79
2024/04/05 13:37:11;;;;;;;3.70;0.60;;;41.80;22.70;;;;;;4877382;29;20142;-79
2024/04/05 13:40:20;;;;;;;2.63;0.50;;;41.30;22.30;;;;;;4891184;29;20044;-80
2024/04/05 13:43:24;;;;;;;2.15;0.60;;;40.80;24.60;;;;;;4905306;29;20074;-80
2024/04/05 13:49:52;;;;;;;1.30;0.45;;;41.20;23.70;;;;;;4885896;29;20045;-79
2024/04/05 13:56:24;;;;;;;3.47;0.55;;;41.00;22.20;;;;;;4883332;29;20049;-80
2024/04/05 13:58:50;;;;;;;3.03;0.95;;;39.90;23.10;;;;;;4883181;29;20059;-80
2024/04/05 14:01:16;;;;;;;1.85;0.60;;;38.90;23.50;;;;;;4963652;28;20043;-80
2024/04/05 14:03:42;;;;;;;4.72;0.60;;;38.00;24.70;;;;;;4969582;28;20151;-80
2024/04/05 14:06:08;;;;;;;4.03;0.60;;;37.60;25.60;;;;;;4971138;28;20055;-80
2024/04/05 14:08:35;;;;;;;1.48;0.50;;;37.60;26.00;;;;;;4954594;28;20447;-80
2024/04/05 14:11:01;;;;;;;2.22;0.63;;;37.90;25.40;;;;;;4970342;28;20057;-80
2024/04/05 14:13:29;;;;;;;2.53;0.52;;;38.10;25.80;;;;;;4938824;28;20062;-80
2024/04/05 14:16:03;;;;;;;6.10;0.63;;;38.50;25.00;;;;;;4954457;28;20507;-81
2024/04/05 14:18:31;;;;;;;1.50;0.60;;;39.00;25.00;;;;;;4971007;28;20059;-80
2024/04/05 14:20:59;;;;;;;1.67;0.60;;;39.50;24.30;;;;;;4953716;28;20073;-80
2024/04/05 14:23:25;;;;;;;1.60;0.40;;;39.80;24.10;;;;;;4933249;28;20055;-81
2024/04/05 14:25:54;;;;;;;3.97;0.60;;;40.20;24.00;;;;;;4970042;28;20089;-81
2024/04/05 14:28:24;;;;;;;4.45;0.73;;;40.30;22.20;;;;;;4960435;28;20058;-81
2024/04/05 14:31:01;;;;;;;3.75;0.50;;;40.20;23.40;;;;;;4993357;28;20066;-81
2024/04/05 14:33:29;;;;;;;1.30;0.60;;;40.30;23.00;;;;;;5006497;28;20045;-80
2024/04/05 14:36:00;;;;;;;1.77;0.52;;;40.30;22.10;;;;;;4996142;28;20865;-81
2024/04/05 14:38:26;;;;;;;1.75;0.63;;;40.20;22.70;;;;;;4996346;28;20045;-80
2024/04/05 14:40:54;;;;;;;2.13;0.60;;;40.00;23.10;;;;;;4997866;28;20057;-83
2024/04/05 14:43:23;;;;;;;2.65;0.47;;;40.00;24.20;;;;;;4998288;28;20486;-83
2024/04/05 14:45:58;;;;;;;2.20;0.50;;;39.80;23.30;;;;;;4994171;28;20080;-83
2024/04/05 14:48:27;;;;;;;1.55;0.50;;;39.40;23.30;;;;;;4997678;28;20042;-82
2024/04/05 14:50:56;;;;;;;1.98;0.50;;;38.90;23.30;;;;;;4983821;28;20104;-83
2024/04/05 14:53:23;;;;;;;0.93;0.30;;;38.40;24.60;;;;;;4996398;28;20497;-83
2024/04/05 14:56:00;;;;;;;2.83;0.50;;;37.90;24.20;;;;;;4997245;28;20050;-82
2024/04/05 14:58:29;;;;;;;2.38;0.50;;;37.20;25.00;;;;;;4996833;28;20058;-83
2024/04/05 15:00:59;;;;;;;1.42;0.40;;;36.60;24.60;;;;;;4980509;28;20041;-82
2024/04/05 15:03:26;;;;;;;3.08;0.68;;;35.60;25.70;;;;;;4979786;28;20049;-82
2024/04/05 15:06:19;;;;;;;2.53;0.75;;;34.90;26.50;;;;;;4996260;28;20057;-82
2024/04/05 15:08:48;;;;;;;1.53;0.53;;;34.10;27.00;;;;;;4979160;28;20049;-83
2024/04/05 15:11:16;;;;;;;2.42;0.60;;;33.50;27.00;;;;;;4997226;28;20050;-82
2024/04/05 15:13:44;;;;;;;2.53;0.80;;;32.90;27.80;;;;;;4998229;28;20054;-83
2024/04/05 15:16:10;;;;;;;2.65;0.50;;;32.30;29.60;;;;;;4995178;28;20054;-82
2024/04/05 15:18:36;;;;;;;1.60;0.60;;;31.70;29.40;;;;;;4995501;28;20116;-82
2024/04/05 15:21:04;;;;;;;4.50;0.57;;;31.30;31.30;;;;;;4997432;28;20382;-82
2024/04/05 15:23:30;;;;;;;2.90;0.60;;;30.90;30.70;;;;;;4996844;28;20061;-82
2024/04/05 15:25:59;;;;;;;2.40;0.50;;;30.60;31.70;;;;;;4996891;28;20505;-82
2024/04/05 15:28:30;;;;;;;4.00;0.40;;;30.10;32.50;;;;;;4998502;28;20049;-82
2024/04/05 15:31:00;;;;;;;3.10;0.77;;;29.70;34.20;;;;;;4996198;28;20061;-82
2024/04/05 15:33:27;;;;;;;3.50;0.70;;;29.50;33.50;;;;;;4996072;28;20053;-79
2024/04/05 15:35:56;;;;;;;4.75;0.50;;;29.30;33.80;;;;;;4996973;28;20041;-81
2024/04/05 15:38:22;;;;;;;2.45;0.60;;;29.10;34.10;;;;;;4992802;28;20054;-79
2024/04/05 15:41:08;;;;;;;2.50;0.60;;;28.70;34.80;;;;;;4996154;28;20813;-79
2024/04/05 15:43:42;;;;;;;4.43;0.65;;;28.50;35.40;;;;;;4996581;28;20046;-79
2024/04/05 15:46:10;;;;;;;2.50;0.70;;;28.30;35.70;;;;;;5008262;28;20418;-80